Overview Statistics Trail Chart Weather Telemetry Raw packets
 

This is the latest recevied weather packets stored in our database for station/object WY6Y. If no packets are shown the sender has not sent any weather packets the latest 10 day(s).

<< 50 51 52 53 54 55 56 >>
Time Temp. Humidity Pressure Rain* Wind** Luminosity Snow
1787797322 28.33° C 67% 1015.2 hPa 0 mm - - -
1787796721 28.89° C 65% 1015.2 hPa 0 mm - - -
1787796119 28.89° C 64% 1015.2 hPa 0 mm - - -
1787795518 29.44° C 62% 1014.9 hPa 0 mm - - -
1787794917 30° C 60% 1014.9 hPa 0 mm - - -
1787794316 30° C 59% 1014.9 hPa 0 mm - - -
1787793714 31.11° C 57% 1014.6 hPa 0 mm - - -
1787793113 31.11° C 55% 1014.2 hPa 0 mm - - -
1787792512 32.22° C 53% 1014.2 hPa 0 mm - - -
1787791911 32.22° C 52% 1014.2 hPa 0 mm - - -
1787791309 33.33° C 50% 1014.2 hPa 0 mm - - -
1787790708 33.33° C 50% 1013.9 hPa 0 mm - - -
1787790107 33.33° C 52% 1013.9 hPa 0 mm - - -
1787789506 33.89° C 51% 1014.2 hPa 0 mm - - -
1787788904 34.44° C 50% 1014.2 hPa 0 mm - - -
1787788303 34.44° C 49% 1014.6 hPa 0 mm - - -
1787787702 35.56° C 46% 1014.6 hPa 0 mm - - -
1787787101 35.56° C 46% 1014.6 hPa 0 mm - - -
1787786500 36.11° C 46% 1014.6 hPa 0 mm - - -
1787785898 36.11° C 48% 1014.6 hPa 0 mm - - -
1787785297 38.33° C 44% 1014.9 hPa 0 mm - - -
1787784696 36.11° C 47% 1014.9 hPa 0 mm - - -
1787784095 35.56° C 49% 1015.2 hPa 0 mm - - -
1787783493 36.67° C 47% 1015.2 hPa 0 mm - - -
1787782892 35.56° C 49% 1015.2 hPa 0 mm - - -

* Rain latest hour (hover to see other rain measurements)
** Current wind speed in m/s (hover to see current wind gust speed)